sensor_id;sensor_type;location;lat;lon;timestamp;pressure;altitude;pressure_sealevel;temperature;humidity
6198;BME280;3132;42.622;23.328;2023-08-12T00:00:48;93429.94;;;16.46;86.41
6198;BME280;3132;42.622;23.328;2023-08-12T00:03:14;93429.94;;;16.46;86.55
6198;BME280;3132;42.622;23.328;2023-08-12T00:05:39;93424.25;;;16.53;86.53
6198;BME280;3132;42.622;23.328;2023-08-12T00:08:05;93425.44;;;16.47;86.97
6198;BME280;3132;42.622;23.328;2023-08-12T00:10:31;93411.34;;;16.24;87.31
6198;BME280;3132;42.622;23.328;2023-08-12T00:12:57;93424.81;;;16.23;87.25
6198;BME280;3132;42.622;23.328;2023-08-12T00:15:22;93413.97;;;16.24;86.71
6198;BME280;3132;42.622;23.328;2023-08-12T00:17:47;93420.94;;;16.20;86.97
6198;BME280;3132;42.622;23.328;2023-08-12T00:20:13;93410.56;;;16.10;87.19
6198;BME280;3132;42.622;23.328;2023-08-12T00:22:39;93414.56;;;16.21;87.28
6198;BME280;3132;42.622;23.328;2023-08-12T00:25:06;93400.13;;;16.05;87.06
6198;BME280;3132;42.622;23.328;2023-08-12T00:27:32;93407.84;;;16.01;87.84
6198;BME280;3132;42.622;23.328;2023-08-12T00:29:57;93411.75;;;16.04;88.18
6198;BME280;3132;42.622;23.328;2023-08-12T00:32:23;93400.03;;;15.96;88.64
6198;BME280;3132;42.622;23.328;2023-08-12T00:34:48;93420.13;;;16.06;88.76
6198;BME280;3132;42.622;23.328;2023-08-12T00:37:13;93419.22;;;15.97;88.75
6198;BME280;3132;42.622;23.328;2023-08-12T00:39:39;93411.81;;;15.85;88.71
6198;BME280;3132;42.622;23.328;2023-08-12T00:42:04;93414.84;;;15.92;89.57
6198;BME280;3132;42.622;23.328;2023-08-12T00:44:30;93410.94;;;16.03;88.90
6198;BME280;3132;42.622;23.328;2023-08-12T00:46:55;93409.19;;;15.99;89.20
6198;BME280;3132;42.622;23.328;2023-08-12T00:49:24;93411.16;;;16.07;88.50
6198;BME280;3132;42.622;23.328;2023-08-12T00:51:52;93396.69;;;15.91;88.99
6198;BME280;3132;42.622;23.328;2023-08-12T00:54:19;93414.38;;;15.90;89.20
6198;BME280;3132;42.622;23.328;2023-08-12T00:56:45;93409.91;;;16.04;88.62
6198;BME280;3132;42.622;23.328;2023-08-12T00:59:11;93414.38;;;16.04;89.33
6198;BME280;3132;42.622;23.328;2023-08-12T01:01:40;93410.56;;;15.96;89.98
6198;BME280;3132;42.622;23.328;2023-08-12T01:04:09;93409.56;;;15.92;89.16
6198;BME280;3132;42.622;23.328;2023-08-12T01:06:35;93398.44;;;15.82;89.19
6198;BME280;3132;42.622;23.328;2023-08-12T01:09:01;93399.09;;;15.74;89.37
6198;BME280;3132;42.622;23.328;2023-08-12T01:11:39;93401.16;;;15.77;88.34
6198;BME280;3132;42.622;23.328;2023-08-12T01:14:25;93400.56;;;15.80;88.57
6198;BME280;3132;42.622;23.328;2023-08-12T01:16:58;93397.56;;;15.73;89.77
6198;BME280;3132;42.622;23.328;2023-08-12T01:21:59;93392.22;;;16.05;88.88
6198;BME280;3132;42.622;23.328;2023-08-12T01:24:26;93395.94;;;16.04;90.30
6198;BME280;3132;42.622;23.328;2023-08-12T01:26:51;93389.00;;;16.08;88.69
6198;BME280;3132;42.622;23.328;2023-08-12T01:29:17;93389.66;;;16.00;88.20
6198;BME280;3132;42.622;23.328;2023-08-12T01:31:49;93403.16;;;16.12;87.26
6198;BME280;3132;42.622;23.328;2023-08-12T01:34:27;93382.09;;;16.12;88.08
6198;BME280;3132;42.622;23.328;2023-08-12T01:36:56;93389.91;;;16.17;86.79
6198;BME280;3132;42.622;23.328;2023-08-12T01:39:26;93390.94;;;16.16;87.35
6198;BME280;3132;42.622;23.328;2023-08-12T01:41:52;93382.56;;;16.00;88.07
6198;BME280;3132;42.622;23.328;2023-08-12T01:44:19;93388.13;;;15.99;87.35
6198;BME280;3132;42.622;23.328;2023-08-12T01:46:45;93378.94;;;15.83;87.62
6198;BME280;3132;42.622;23.328;2023-08-12T01:49:10;93389.88;;;15.90;88.35
6198;BME280;3132;42.622;23.328;2023-08-12T01:51:35;93391.81;;;15.84;88.78
6198;BME280;3132;42.622;23.328;2023-08-12T01:54:01;93391.50;;;15.86;89.02
6198;BME280;3132;42.622;23.328;2023-08-12T01:56:26;93389.38;;;15.74;88.99
6198;BME280;3132;42.622;23.328;2023-08-12T01:58:52;93389.66;;;15.73;88.86
6198;BME280;3132;42.622;23.328;2023-08-12T02:01:17;93389.44;;;15.69;88.95
6198;BME280;3132;42.622;23.328;2023-08-12T02:03:42;93388.19;;;15.67;88.59
6198;BME280;3132;42.622;23.328;2023-08-12T02:06:08;93385.75;;;15.70;88.43
6198;BME280;3132;42.622;23.328;2023-08-12T02:08:33;93393.38;;;15.72;88.45
6198;BME280;3132;42.622;23.328;2023-08-12T02:10:59;93392.56;;;15.58;89.15
6198;BME280;3132;42.622;23.328;2023-08-12T02:13:24;93394.69;;;15.56;87.42
6198;BME280;3132;42.622;23.328;2023-08-12T02:15:49;93381.03;;;15.54;88.00
6198;BME280;3132;42.622;23.328;2023-08-12T02:18:15;93384.47;;;15.54;88.37
6198;BME280;3132;42.622;23.328;2023-08-12T02:20:41;93396.00;;;15.72;88.15
6198;BME280;3132;42.622;23.328;2023-08-12T02:23:06;93371.16;;;15.46;89.14
6198;BME280;3132;42.622;23.328;2023-08-12T02:25:32;93380.47;;;15.57;88.67
6198;BME280;3132;42.622;23.328;2023-08-12T02:27:57;93370.50;;;15.40;88.26
6198;BME280;3132;42.622;23.328;2023-08-12T02:30:22;93392.00;;;15.61;88.59
6198;BME280;3132;42.622;23.328;2023-08-12T02:32:48;93385.34;;;15.50;88.27
6198;BME280;3132;42.622;23.328;2023-08-12T02:35:15;93379.56;;;15.48;88.56
6198;BME280;3132;42.622;23.328;2023-08-12T02:37:40;93396.16;;;15.62;88.43
6198;BME280;3132;42.622;23.328;2023-08-12T02:40:06;93384.75;;;15.53;88.41
6198;BME280;3132;42.622;23.328;2023-08-12T02:42:32;93382.28;;;15.43;89.23
6198;BME280;3132;42.622;23.328;2023-08-12T02:44:57;93397.84;;;15.58;89.27
6198;BME280;3132;42.622;23.328;2023-08-12T02:47:22;93399.72;;;15.39;88.57
6198;BME280;3132;42.622;23.328;2023-08-12T02:49:48;93390.63;;;15.31;88.66
6198;BME280;3132;42.622;23.328;2023-08-12T02:52:13;93400.41;;;15.44;89.17
6198;BME280;3132;42.622;23.328;2023-08-12T02:54:39;93404.13;;;15.43;88.50
6198;BME280;3132;42.622;23.328;2023-08-12T02:57:04;93392.59;;;15.39;87.54
6198;BME280;3132;42.622;23.328;2023-08-12T02:59:30;93396.00;;;15.40;89.51
6198;BME280;3132;42.622;23.328;2023-08-12T03:01:55;93403.03;;;15.44;89.38
6198;BME280;3132;42.622;23.328;2023-08-12T03:04:20;93399.72;;;15.39;90.10
6198;BME280;3132;42.622;23.328;2023-08-12T03:06:47;93394.22;;;15.35;90.97
6198;BME280;3132;42.622;23.328;2023-08-12T03:09:13;93404.19;;;15.38;91.54
6198;BME280;3132;42.622;23.328;2023-08-12T03:11:38;93403.34;;;15.24;91.39
6198;BME280;3132;42.622;23.328;2023-08-12T03:14:04;93406.91;;;15.15;92.83
6198;BME280;3132;42.622;23.328;2023-08-12T03:16:29;93410.94;;;15.26;91.87
6198;BME280;3132;42.622;23.328;2023-08-12T03:18:54;93405.28;;;15.19;93.07
6198;BME280;3132;42.622;23.328;2023-08-12T03:21:20;93396.19;;;14.93;93.49
6198;BME280;3132;42.622;23.328;2023-08-12T03:23:45;93393.44;;;14.84;94.66
6198;BME280;3132;42.622;23.328;2023-08-12T03:26:11;93405.72;;;14.89;95.66
6198;BME280;3132;42.622;23.328;2023-08-12T03:28:36;93389.16;;;14.88;95.40
6198;BME280;3132;42.622;23.328;2023-08-12T03:31:02;93415.66;;;15.10;94.14
6198;BME280;3132;42.622;23.328;2023-08-12T03:33:27;93410.75;;;15.04;94.19
6198;BME280;3132;42.622;23.328;2023-08-12T03:35:53;93411.19;;;14.92;94.66
6198;BME280;3132;42.622;23.328;2023-08-12T03:38:18;93416.75;;;14.91;94.49
6198;BME280;3132;42.622;23.328;2023-08-12T03:40:43;93412.81;;;14.88;94.68
6198;BME280;3132;42.622;23.328;2023-08-12T03:43:09;93423.06;;;14.90;95.48
6198;BME280;3132;42.622;23.328;2023-08-12T03:45:41;93420.22;;;15.05;95.41
6198;BME280;3132;42.622;23.328;2023-08-12T03:48:07;93419.56;;;14.94;95.94
6198;BME280;3132;42.622;23.328;2023-08-12T03:50:36;93417.44;;;14.96;95.86
6198;BME280;3132;42.622;23.328;2023-08-12T03:53:02;93420.63;;;14.93;95.82
6198;BME280;3132;42.622;23.328;2023-08-12T03:55:33;93429.31;;;14.94;96.04
6198;BME280;3132;42.622;23.328;2023-08-12T03:58:02;93425.91;;;14.93;94.80
6198;BME280;3132;42.622;23.328;2023-08-12T04:00:27;93412.81;;;15.07;95.12
6198;BME280;3132;42.622;23.328;2023-08-12T04:02:53;93421.31;;;15.36;94.83
6198;BME280;3132;42.622;23.328;2023-08-12T04:05:19;93414.47;;;15.35;94.78
6198;BME280;3132;42.622;23.328;2023-08-12T04:07:44;93425.25;;;15.38;96.50
6198;BME280;3132;42.622;23.328;2023-08-12T04:10:10;93423.16;;;15.54;94.98
6198;BME280;3132;42.622;23.328;2023-08-12T04:12:35;93411.28;;;15.56;94.91
6198;BME280;3132;42.622;23.328;2023-08-12T04:15:01;93427.09;;;15.70;94.83
6198;BME280;3132;42.622;23.328;2023-08-12T04:17:29;93426.81;;;15.71;95.15
6198;BME280;3132;42.622;23.328;2023-08-12T04:19:54;93424.56;;;15.78;91.23
6198;BME280;3132;42.622;23.328;2023-08-12T04:22:20;93410.53;;;15.83;91.40
6198;BME280;3132;42.622;23.328;2023-08-12T04:24:45;93431.81;;;16.00;90.13
6198;BME280;3132;42.622;23.328;2023-08-12T04:27:11;93422.66;;;16.11;89.29
6198;BME280;3132;42.622;23.328;2023-08-12T04:29:36;93434.47;;;16.27;89.11
6198;BME280;3132;42.622;23.328;2023-08-12T04:32:01;93430.06;;;16.36;86.74
6198;BME280;3132;42.622;23.328;2023-08-12T04:34:27;93435.75;;;16.43;87.65
6198;BME280;3132;42.622;23.328;2023-08-12T04:36:52;93427.78;;;16.48;86.55
6198;BME280;3132;42.622;23.328;2023-08-12T04:39:18;93424.34;;;16.61;84.03
6198;BME280;3132;42.622;23.328;2023-08-12T04:41:43;93426.38;;;16.64;82.65
6198;BME280;3132;42.622;23.328;2023-08-12T04:44:08;93439.88;;;16.98;79.91
6198;BME280;3132;42.622;23.328;2023-08-12T04:46:34;93424.09;;;16.85;81.39
6198;BME280;3132;42.622;23.328;2023-08-12T04:48:59;93442.81;;;17.10;80.42
6198;BME280;3132;42.622;23.328;2023-08-12T04:51:25;93439.69;;;17.08;81.26
6198;BME280;3132;42.622;23.328;2023-08-12T04:53:50;93447.59;;;17.08;79.51
6198;BME280;3132;42.622;23.328;2023-08-12T04:56:15;93417.47;;;16.74;78.48
6198;BME280;3132;42.622;23.328;2023-08-12T04:58:41;93425.94;;;16.98;77.03
6198;BME280;3132;42.622;23.328;2023-08-12T05:01:07;93436.34;;;17.16;77.45
6198;BME280;3132;42.622;23.328;2023-08-12T05:03:33;93442.22;;;17.35;73.85
6198;BME280;3132;42.622;23.328;2023-08-12T05:05:58;93440.16;;;17.46;74.56
6198;BME280;3132;42.622;23.328;2023-08-12T05:08:23;93443.78;;;17.81;73.82
6198;BME280;3132;42.622;23.328;2023-08-12T05:10:49;93439.19;;;17.86;72.66
6198;BME280;3132;42.622;23.328;2023-08-12T05:13:15;93446.59;;;17.76;71.84
6198;BME280;3132;42.622;23.328;2023-08-12T05:15:41;93454.97;;;17.78;73.15
6198;BME280;3132;42.622;23.328;2023-08-12T05:18:06;93442.44;;;18.14;71.96
6198;BME280;3132;42.622;23.328;2023-08-12T05:20:32;93457.78;;;18.12;73.87
6198;BME280;3132;42.622;23.328;2023-08-12T05:22:59;93456.25;;;18.41;70.71
6198;BME280;3132;42.622;23.328;2023-08-12T05:25:24;93457.28;;;18.62;70.59
6198;BME280;3132;42.622;23.328;2023-08-12T05:27:49;93444.78;;;18.46;69.97
6198;BME280;3132;42.622;23.328;2023-08-12T05:30:15;93456.22;;;18.80;68.79
6198;BME280;3132;42.622;23.328;2023-08-12T05:32:41;93464.97;;;18.98;69.09
6198;BME280;3132;42.622;23.328;2023-08-12T05:35:06;93470.31;;;18.59;69.41
6198;BME280;3132;42.622;23.328;2023-08-12T05:37:32;93461.75;;;19.18;67.47
6198;BME280;3132;42.622;23.328;2023-08-12T05:39:57;93465.53;;;19.34;67.56
6198;BME280;3132;42.622;23.328;2023-08-12T05:42:22;93467.28;;;18.82;69.16
6198;BME280;3132;42.622;23.328;2023-08-12T05:44:48;93467.50;;;19.20;68.38
6198;BME280;3132;42.622;23.328;2023-08-12T05:47:13;93464.59;;;19.64;66.94
6198;BME280;3132;42.622;23.328;2023-08-12T05:49:38;93464.28;;;19.57;67.06
6198;BME280;3132;42.622;23.328;2023-08-12T05:52:04;93462.56;;;19.53;67.17
6198;BME280;3132;42.622;23.328;2023-08-12T05:54:30;93468.91;;;19.09;69.20
6198;BME280;3132;42.622;23.328;2023-08-12T05:56:55;93446.59;;;18.93;70.52
6198;BME280;3132;42.622;23.328;2023-08-12T05:59:21;93464.44;;;19.52;67.63
6198;BME280;3132;42.622;23.328;2023-08-12T06:01:46;93461.78;;;19.61;67.62
6198;BME280;3132;42.622;23.328;2023-08-12T06:04:12;93469.44;;;20.80;64.02
6198;BME280;3132;42.622;23.328;2023-08-12T06:06:37;93469.22;;;22.62;55.91
6198;BME280;3132;42.622;23.328;2023-08-12T06:09:02;93460.59;;;21.67;58.68
6198;BME280;3132;42.622;23.328;2023-08-12T06:11:28;93464.63;;;22.38;57.50
6198;BME280;3132;42.622;23.328;2023-08-12T06:13:54;93458.31;;;23.78;52.73
6198;BME280;3132;42.622;23.328;2023-08-12T06:16:19;93461.25;;;24.44;51.79
6198;BME280;3132;42.622;23.328;2023-08-12T06:18:44;93469.16;;;26.03;45.72
6198;BME280;3132;42.622;23.328;2023-08-12T06:21:10;93460.78;;;30.32;37.61
6198;BME280;3132;42.622;23.328;2023-08-12T06:23:35;93464.81;;;29.91;37.01
6198;BME280;3132;42.622;23.328;2023-08-12T06:26:00;93481.31;;;31.73;33.38
6198;BME280;3132;42.622;23.328;2023-08-12T06:28:26;93454.16;;;25.45;45.35
6198;BME280;3132;42.622;23.328;2023-08-12T06:30:51;93454.34;;;23.21;50.76
6198;BME280;3132;42.622;23.328;2023-08-12T06:33:17;93442.78;;;21.88;55.61
6198;BME280;3132;42.622;23.328;2023-08-12T06:35:42;93429.44;;;20.85;59.14
6198;BME280;3132;42.622;23.328;2023-08-12T06:38:07;93432.50;;;20.66;60.66
6198;BME280;3132;42.622;23.328;2023-08-12T06:40:35;93438.38;;;20.81;60.94
6198;BME280;3132;42.622;23.328;2023-08-12T06:43:00;93430.38;;;20.05;62.61
6198;BME280;3132;42.622;23.328;2023-08-12T06:45:26;93419.41;;;20.24;61.52
6198;BME280;3132;42.622;23.328;2023-08-12T06:47:51;93413.84;;;20.54;60.85
6198;BME280;3132;42.622;23.328;2023-08-12T06:50:17;93421.00;;;20.83;60.98
6198;BME280;3132;42.622;23.328;2023-08-12T06:52:42;93426.16;;;20.80;61.36
6198;BME280;3132;42.622;23.328;2023-08-12T06:55:08;93423.44;;;20.30;63.43
6198;BME280;3132;42.622;23.328;2023-08-12T06:57:33;93421.34;;;19.89;65.23
6198;BME280;3132;42.622;23.328;2023-08-12T06:59:58;93402.44;;;20.16;62.74
6198;BME280;3132;42.622;23.328;2023-08-12T07:02:24;93423.44;;;20.67;61.30
6198;BME280;3132;42.622;23.328;2023-08-12T07:04:49;93416.88;;;20.36;63.56
6198;BME280;3132;42.622;23.328;2023-08-12T07:07:14;93424.59;;;20.12;63.82
6198;BME280;3132;42.622;23.328;2023-08-12T07:09:40;93421.59;;;20.30;61.76
6198;BME280;3132;42.622;23.328;2023-08-12T07:12:06;93419.53;;;20.36;61.84
6198;BME280;3132;42.622;23.328;2023-08-12T07:14:31;93434.28;;;20.54;59.78
6198;BME280;3132;42.622;23.328;2023-08-12T07:16:56;93423.22;;;20.52;60.98
6198;BME280;3132;42.622;23.328;2023-08-12T07:19:22;93422.69;;;20.88;59.64
6198;BME280;3132;42.622;23.328;2023-08-12T07:21:48;93433.13;;;21.22;58.19
6198;BME280;3132;42.622;23.328;2023-08-12T07:24:13;93430.00;;;20.99;59.26
6198;BME280;3132;42.622;23.328;2023-08-12T07:26:38;93423.78;;;20.11;62.23
6198;BME280;3132;42.622;23.328;2023-08-12T07:29:04;93415.25;;;20.14;63.05
6198;BME280;3132;42.622;23.328;2023-08-12T07:31:29;93428.44;;;20.98;60.68
6198;BME280;3132;42.622;23.328;2023-08-12T07:33:55;93416.44;;;21.21;59.26
6198;BME280;3132;42.622;23.328;2023-08-12T07:36:20;93430.56;;;21.34;60.92
6198;BME280;3132;42.622;23.328;2023-08-12T07:38:46;93428.56;;;21.02;61.57
6198;BME280;3132;42.622;23.328;2023-08-12T07:41:11;93422.81;;;21.20;60.63
6198;BME280;3132;42.622;23.328;2023-08-12T07:43:36;93424.69;;;20.91;61.34
6198;BME280;3132;42.622;23.328;2023-08-12T07:46:02;93417.66;;;20.95;59.86
6198;BME280;3132;42.622;23.328;2023-08-12T07:48:27;93420.81;;;21.17;61.39
6198;BME280;3132;42.622;23.328;2023-08-12T07:50:59;93416.50;;;21.66;57.14
6198;BME280;3132;42.622;23.328;2023-08-12T07:53:25;93416.00;;;21.72;56.64
6198;BME280;3132;42.622;23.328;2023-08-12T07:55:50;93418.84;;;21.67;55.88
6198;BME280;3132;42.622;23.328;2023-08-12T07:58:16;93412.38;;;21.36;57.76
6198;BME280;3132;42.622;23.328;2023-08-12T08:00:41;93421.59;;;21.38;57.38
6198;BME280;3132;42.622;23.328;2023-08-12T08:03:06;93409.53;;;21.41;56.48
6198;BME280;3132;42.622;23.328;2023-08-12T08:05:32;93412.13;;;21.29;57.24
6198;BME280;3132;42.622;23.328;2023-08-12T08:07:57;93399.84;;;21.24;58.50
6198;BME280;3132;42.622;23.328;2023-08-12T08:10:23;93403.50;;;21.52;58.02
6198;BME280;3132;42.622;23.328;2023-08-12T08:12:48;93411.19;;;21.66;57.28
6198;BME280;3132;42.622;23.328;2023-08-12T08:15:13;93413.81;;;22.07;54.77
6198;BME280;3132;42.622;23.328;2023-08-12T08:17:39;93400.00;;;21.60;58.48
6198;BME280;3132;42.622;23.328;2023-08-12T08:20:05;93406.69;;;21.46;57.40
6198;BME280;3132;42.622;23.328;2023-08-12T08:22:31;93409.03;;;21.27;60.17
6198;BME280;3132;42.622;23.328;2023-08-12T08:24:56;93411.84;;;21.63;59.08
6198;BME280;3132;42.622;23.328;2023-08-12T08:27:22;93408.69;;;22.14;56.78
6198;BME280;3132;42.622;23.328;2023-08-12T08:29:47;93410.44;;;22.55;52.04
6198;BME280;3132;42.622;23.328;2023-08-12T08:32:13;93417.66;;;22.66;52.85
6198;BME280;3132;42.622;23.328;2023-08-12T08:34:38;93417.09;;;22.04;53.55
6198;BME280;3132;42.622;23.328;2023-08-12T08:37:03;93414.84;;;21.82;53.22
6198;BME280;3132;42.622;23.328;2023-08-12T08:39:29;93404.41;;;21.77;53.55
6198;BME280;3132;42.622;23.328;2023-08-12T08:41:56;93400.25;;;22.12;52.38
6198;BME280;3132;42.622;23.328;2023-08-12T08:44:22;93410.31;;;22.51;51.85
6198;BME280;3132;42.622;23.328;2023-08-12T08:46:51;93405.13;;;22.55;51.15
6198;BME280;3132;42.622;23.328;2023-08-12T08:49:18;93412.66;;;22.77;50.39
6198;BME280;3132;42.622;23.328;2023-08-12T08:51:46;93408.09;;;22.77;49.62
6198;BME280;3132;42.622;23.328;2023-08-12T08:54:12;93385.06;;;22.69;50.83
6198;BME280;3132;42.622;23.328;2023-08-12T08:56:37;93395.47;;;22.86;51.55
6198;BME280;3132;42.622;23.328;2023-08-12T08:59:03;93363.63;;;22.66;50.74
6198;BME280;3132;42.622;23.328;2023-08-12T09:01:29;93389.66;;;22.96;49.57
6198;BME280;3132;42.622;23.328;2023-08-12T09:03:57;93403.56;;;22.78;49.46
6198;BME280;3132;42.622;23.328;2023-08-12T09:06:24;93364.03;;;22.19;51.41
6198;BME280;3132;42.622;23.328;2023-08-12T09:08:51;93398.44;;;21.92;52.00
6198;BME280;3132;42.622;23.328;2023-08-12T09:11:18;93392.66;;;22.47;52.34
6198;BME280;3132;42.622;23.328;2023-08-12T09:13:44;93364.63;;;22.73;53.46
6198;BME280;3132;42.622;23.328;2023-08-12T09:16:10;93387.25;;;22.79;52.32
6198;BME280;3132;42.622;23.328;2023-08-12T09:18:36;93384.34;;;22.96;49.81
6198;BME280;3132;42.622;23.328;2023-08-12T09:21:03;93387.41;;;23.10;50.63
6198;BME280;3132;42.622;23.328;2023-08-12T09:23:34;93385.13;;;22.73;49.33
6198;BME280;3132;42.622;23.328;2023-08-12T09:26:01;93381.72;;;22.72;50.15
6198;BME280;3132;42.622;23.328;2023-08-12T09:28:26;93377.16;;;22.85;52.46
6198;BME280;3132;42.622;23.328;2023-08-12T09:30:51;93370.75;;;23.13;50.53
6198;BME280;3132;42.622;23.328;2023-08-12T09:33:26;93368.81;;;23.38;47.77
6198;BME280;3132;42.622;23.328;2023-08-12T09:35:51;93370.38;;;23.39;49.35
6198;BME280;3132;42.622;23.328;2023-08-12T09:38:17;93369.31;;;23.55;48.60
6198;BME280;3132;42.622;23.328;2023-08-12T09:40:43;93369.94;;;23.64;49.48
6198;BME280;3132;42.622;23.328;2023-08-12T09:43:09;93360.16;;;23.68;49.99
6198;BME280;3132;42.622;23.328;2023-08-12T09:45:36;93358.72;;;23.43;46.35
6198;BME280;3132;42.622;23.328;2023-08-12T09:48:02;93349.66;;;23.20;47.41
6198;BME280;3132;42.622;23.328;2023-08-12T09:50:28;93357.09;;;22.75;47.86
6198;BME280;3132;42.622;23.328;2023-08-12T09:52:54;93359.69;;;23.11;47.33
6198;BME280;3132;42.622;23.328;2023-08-12T09:55:23;93353.84;;;22.94;48.52
6198;BME280;3132;42.622;23.328;2023-08-12T09:57:51;93347.59;;;23.41;48.93
6198;BME280;3132;42.622;23.328;2023-08-12T10:00:18;93348.03;;;23.43;48.54
6198;BME280;3132;42.622;23.328;2023-08-12T10:02:48;93346.91;;;24.00;47.69
6198;BME280;3132;42.622;23.328;2023-08-12T10:05:32;93340.47;;;23.89;47.66
6198;BME280;3132;42.622;23.328;2023-08-12T10:07:58;93350.72;;;23.87;46.62
6198;BME280;3132;42.622;23.328;2023-08-12T10:10:25;93312.16;;;23.68;45.79
6198;BME280;3132;42.622;23.328;2023-08-12T10:12:51;93343.44;;;23.99;45.94
6198;BME280;3132;42.622;23.328;2023-08-12T10:15:17;93343.59;;;23.91;46.00
6198;BME280;3132;42.622;23.328;2023-08-12T10:17:43;93347.50;;;23.65;45.96
6198;BME280;3132;42.622;23.328;2023-08-12T10:20:12;93337.28;;;23.83;46.53
6198;BME280;3132;42.622;23.328;2023-08-12T10:22:39;93336.41;;;23.79;45.87
6198;BME280;3132;42.622;23.328;2023-08-12T10:25:07;93335.50;;;23.87;47.11
6198;BME280;3132;42.622;23.328;2023-08-12T10:27:33;93337.91;;;23.77;46.13
6198;BME280;3132;42.622;23.328;2023-08-12T10:29:58;93326.59;;;23.83;45.04
6198;BME280;3132;42.622;23.328;2023-08-12T10:32:26;93333.50;;;23.84;45.06
6198;BME280;3132;42.622;23.328;2023-08-12T10:34:56;93314.84;;;23.84;45.44
6198;BME280;3132;42.622;23.328;2023-08-12T10:37:23;93332.63;;;24.08;47.32
6198;BME280;3132;42.622;23.328;2023-08-12T10:39:51;93326.16;;;24.24;45.59
6198;BME280;3132;42.622;23.328;2023-08-12T10:42:39;93321.84;;;24.20;45.51
6198;BME280;3132;42.622;23.328;2023-08-12T10:45:06;93323.38;;;24.21;44.55
6198;BME280;3132;42.622;23.328;2023-08-12T10:47:32;93323.81;;;24.23;45.82
6198;BME280;3132;42.622;23.328;2023-08-12T10:49:59;93307.69;;;24.50;43.10
6198;BME280;3132;42.622;23.328;2023-08-12T10:52:29;93304.28;;;24.34;44.43
6198;BME280;3132;42.622;23.328;2023-08-12T10:54:55;93308.00;;;23.71;44.58
6198;BME280;3132;42.622;23.328;2023-08-12T10:57:36;93305.50;;;24.06;44.85
6198;BME280;3132;42.622;23.328;2023-08-12T11:00:03;93305.38;;;24.49;44.42
6198;BME280;3132;42.622;23.328;2023-08-12T11:02:33;93306.59;;;24.67;42.59
6198;BME280;3132;42.622;23.328;2023-08-12T11:05:12;93301.66;;;24.69;43.10
6198;BME280;3132;42.622;23.328;2023-08-12T11:10:15;93295.38;;;24.46;42.42
6198;BME280;3132;42.622;23.328;2023-08-12T11:13:08;93297.19;;;24.57;43.35
6198;BME280;3132;42.622;23.328;2023-08-12T11:15:44;93294.09;;;24.90;40.63
6198;BME280;3132;42.622;23.328;2023-08-12T11:18:19;93290.84;;;25.00;38.10
6198;BME280;3132;42.622;23.328;2023-08-12T11:20:47;93290.47;;;24.98;39.29
6198;BME280;3132;42.622;23.328;2023-08-12T11:23:13;93295.50;;;24.84;41.31
6198;BME280;3132;42.622;23.328;2023-08-12T11:25:40;93295.31;;;25.11;38.64
6198;BME280;3132;42.622;23.328;2023-08-12T11:28:07;93293.25;;;24.86;38.41
6198;BME280;3132;42.622;23.328;2023-08-12T11:30:32;93281.56;;;24.75;39.06
6198;BME280;3132;42.622;23.328;2023-08-12T11:32:58;93289.84;;;24.70;38.88
6198;BME280;3132;42.622;23.328;2023-08-12T11:35:25;93270.22;;;24.47;39.91
6198;BME280;3132;42.622;23.328;2023-08-12T11:37:52;93284.19;;;24.56;37.91
6198;BME280;3132;42.622;23.328;2023-08-12T11:40:19;93283.97;;;24.64;37.74
6198;BME280;3132;42.622;23.328;2023-08-12T11:42:46;93288.19;;;25.19;37.57
6198;BME280;3132;42.622;23.328;2023-08-12T11:45:14;93286.50;;;25.30;37.94
6198;BME280;3132;42.622;23.328;2023-08-12T11:47:40;93289.00;;;25.39;38.42
6198;BME280;3132;42.622;23.328;2023-08-12T11:50:11;93287.41;;;25.76;36.73
6198;BME280;3132;42.622;23.328;2023-08-12T11:52:37;93287.38;;;26.17;36.89
6198;BME280;3132;42.622;23.328;2023-08-12T11:55:04;93285.16;;;26.23;36.18
6198;BME280;3132;42.622;23.328;2023-08-12T11:57:30;93278.53;;;25.94;36.97
6198;BME280;3132;42.622;23.328;2023-08-12T12:00:03;93269.53;;;26.02;36.40
6198;BME280;3132;42.622;23.328;2023-08-12T12:02:30;93261.22;;;26.33;34.99
6198;BME280;3132;42.622;23.328;2023-08-12T12:04:55;93277.47;;;26.21;34.95
6198;BME280;3132;42.622;23.328;2023-08-12T12:07:23;93256.06;;;26.21;34.95
6198;BME280;3132;42.622;23.328;2023-08-12T12:09:52;93277.94;;;26.01;35.09
6198;BME280;3132;42.622;23.328;2023-08-12T12:12:22;93281.88;;;25.27;36.95
6198;BME280;3132;42.622;23.328;2023-08-12T12:14:51;93269.06;;;25.17;37.43
6198;BME280;3132;42.622;23.328;2023-08-12T12:17:18;93265.13;;;24.92;37.44
6198;BME280;3132;42.622;23.328;2023-08-12T12:19:45;93267.94;;;24.80;37.86
6198;BME280;3132;42.622;23.328;2023-08-12T12:22:10;93253.47;;;24.81;36.25
6198;BME280;3132;42.622;23.328;2023-08-12T12:24:46;93248.88;;;24.81;36.62
6198;BME280;3132;42.622;23.328;2023-08-12T12:27:13;93254.22;;;24.81;37.54
6198;BME280;3132;42.622;23.328;2023-08-12T12:29:39;93248.34;;;24.57;37.38
6198;BME280;3132;42.622;23.328;2023-08-12T12:32:04;93252.19;;;24.94;37.04
6198;BME280;3132;42.622;23.328;2023-08-12T12:34:30;93247.97;;;25.12;37.38
6198;BME280;3132;42.622;23.328;2023-08-12T12:36:55;93239.31;;;25.38;36.31
6198;BME280;3132;42.622;23.328;2023-08-12T12:39:20;93248.75;;;25.73;35.00
6198;BME280;3132;42.622;23.328;2023-08-12T12:41:48;93253.22;;;25.88;32.39
6198;BME280;3132;42.622;23.328;2023-08-12T12:44:14;93249.50;;;25.96;33.53
6198;BME280;3132;42.622;23.328;2023-08-12T12:46:39;93238.03;;;26.18;33.86
6198;BME280;3132;42.622;23.328;2023-08-12T12:49:05;93235.41;;;26.48;32.90
6198;BME280;3132;42.622;23.328;2023-08-12T12:51:30;93242.00;;;26.54;32.51
6198;BME280;3132;42.622;23.328;2023-08-12T12:53:56;93229.97;;;26.41;32.72
6198;BME280;3132;42.622;23.328;2023-08-12T12:56:21;93229.06;;;26.86;32.83
6198;BME280;3132;42.622;23.328;2023-08-12T12:58:46;93236.56;;;26.47;33.22
6198;BME280;3132;42.622;23.328;2023-08-12T13:01:12;93232.69;;;26.44;33.20
6198;BME280;3132;42.622;23.328;2023-08-12T13:03:37;93230.56;;;26.57;34.31
6198;BME280;3132;42.622;23.328;2023-08-12T13:06:03;93220.41;;;26.69;34.10
6198;BME280;3132;42.622;23.328;2023-08-12T13:08:29;93220.34;;;26.92;33.62
6198;BME280;3132;42.622;23.328;2023-08-12T13:10:56;93229.28;;;26.73;37.86